Time;durP1;ratioP1;P1;durP2;ratioP2;P2;SDS_P1;SDS_P2;PMS_P1;PMS_P2;Temp;Humidity;BMP_temperature;BMP_pressure;BME280_temperature;BME280_humidity;BME280_pressure;Samples;Min_cycle;Max_cycle;Signal;HPM_P1;HPM_P2
2022/09/20 00:01:56;;;;;;;5.63;1.92;;;;;;;16.35;54.28;100482.81;5037167;28;20042;-88
2022/09/20 00:04:22;;;;;;;9.55;2.05;;;;;;;16.25;54.10;100469.38;5049616;28;20328;-87
2022/09/20 00:06:47;;;;;;;6.85;1.88;;;;;;;16.32;54.40;100484.00;5053911;28;20041;-85
2022/09/20 00:09:13;;;;;;;3.08;1.67;;;;;;;16.71;54.06;100524.16;5037556;28;20013;-87
2022/09/20 00:11:38;;;;;;;6.72;1.60;;;;;;;16.43;54.41;100496.38;5035631;28;20159;-88
2022/09/20 00:14:07;;;;;;;4.95;2.03;;;;;;;16.07;54.48;100430.66;5043500;28;20056;-88
2022/09/20 00:16:36;;;;;;;5.63;2.22;;;;;;;16.34;54.54;100464.81;5047549;28;20029;-89
2022/09/20 00:19:06;;;;;;;5.32;1.83;;;;;;;16.31;54.53;100455.16;5070095;28;20025;-87
2022/09/20 00:21:35;;;;;;;6.60;1.42;;;;;;;16.58;54.56;100493.91;5070102;28;20029;-90
2022/09/20 00:24:01;;;;;;;5.50;2.05;;;;;;;16.71;54.23;100503.28;5056310;28;20425;-87
2022/09/20 00:26:27;;;;;;;3.08;1.80;;;;;;;16.77;54.30;100496.31;5037327;28;20033;-88
2022/09/20 00:28:53;;;;;;;6.32;1.85;;;;;;;16.46;54.23;100440.91;5052241;28;20043;-88
2022/09/20 00:31:19;;;;;;;5.00;1.60;;;;;;;16.76;54.68;100497.34;5051957;28;20444;-88
2022/09/20 00:36:30;;;;;;;2.47;1.33;;;;;;;16.30;54.67;100418.16;5053747;28;20036;-88
2022/09/20 00:38:57;;;;;;;7.90;1.70;;;;;;;16.71;54.80;100477.97;5053491;28;20028;-87
2022/09/20 00:41:23;;;;;;;10.55;1.80;;;;;;;16.52;54.74;100445.66;5051955;28;20104;-87
2022/09/20 00:43:49;;;;;;;5.82;1.33;;;;;;;16.68;54.50;100478.31;5053724;28;20037;-87
2022/09/20 00:46:26;;;;;;;4.03;1.17;;;;;;;16.70;54.76;100479.84;5052455;28;20120;-83
2022/09/20 00:48:57;;;;;;;5.78;1.85;;;;;;;16.61;54.65;100467.28;5051583;28;20025;-85
2022/09/20 00:51:28;;;;;;;11.43;1.80;;;;;;;16.59;54.77;100457.59;5051338;28;20403;-84
2022/09/20 00:53:58;;;;;;;6.78;1.17;;;;;;;16.36;54.66;100430.19;5051417;28;20450;-82
2022/09/20 00:56:42;;;;;;;2.75;1.38;;;;;;;16.39;54.81;100423.63;5052250;28;20021;-83
2022/09/20 00:59:26;;;;;;;2.50;1.30;;;;;;;16.49;54.98;100452.28;5049322;28;20117;-83
2022/09/20 01:02:26;;;;;;;2.20;1.23;;;;;;;16.49;54.96;100446.00;5051176;28;20450;-83
2022/09/20 01:04:51;;;;;;;7.80;2.13;;;;;;;16.38;55.16;100449.03;4989217;28;20046;-84
2022/09/20 01:07:21;;;;;;;4.90;1.42;;;;;;;16.48;55.12;100449.75;4989333;28;20027;-83
2022/09/20 01:09:47;;;;;;;8.20;1.35;;;;;;;16.32;55.14;100437.84;4989768;28;20046;-84
2022/09/20 01:12:17;;;;;;;3.47;1.20;;;;;;;16.34;55.15;100438.53;4989908;28;20026;-82
2022/09/20 01:14:45;;;;;;;10.68;3.90;;;;;;;16.29;55.20;100434.63;4989692;28;20046;-83
2022/09/20 01:17:12;;;;;;;3.65;1.60;;;;;;;16.21;55.25;100437.28;4989508;28;20038;-83
2022/09/20 01:19:55;;;;;;;2.08;1.55;;;;;;;16.31;55.07;100452.44;4990450;28;20041;-84
2022/09/20 01:22:26;;;;;;;;;;;;;;;16.28;55.50;100454.63;4991980;28;20030;-83
2022/09/20 01:25:10;;;;;;;7.28;1.02;;;;;;;16.22;55.42;100472.41;4995669;28;19897;-83
2022/09/20 01:27:44;;;;;;;6.20;1.40;;;;;;;16.12;55.55;100455.41;4981612;28;20049;-83
2022/09/20 01:30:22;;;;;;;2.45;1.13;;;;;;;16.10;55.90;100460.16;5015444;28;20026;-85
2022/09/20 01:33:08;;;;;;;2.17;1.15;;;;;;;16.08;55.63;100442.34;5015008;28;20090;-86
2022/09/20 01:35:35;;;;;;;3.35;1.30;;;;;;;16.20;55.87;100476.31;5012342;28;20049;-83
2022/09/20 01:38:14;;;;;;;3.15;1.23;;;;;;;15.79;56.29;100413.78;5017620;28;20039;-81
2022/09/20 01:41:11;;;;;;;4.80;1.27;;;;;;;16.16;56.03;100478.50;5006721;28;20037;-84
2022/09/20 01:44:14;;;;;;;4.75;1.13;;;;;;;16.04;55.68;100444.56;5056183;28;20029;-83
2022/09/20 01:46:41;;;;;;;3.33;0.90;;;;;;;16.22;55.94;100494.13;4994131;28;20153;-83
2022/09/20 01:49:24;;;;;;;3.83;1.40;;;;;;;16.20;56.03;100481.75;4994042;28;20034;-85
2022/09/20 01:52:02;;;;;;;4.35;1.25;;;;;;;16.22;55.89;100482.41;4993218;28;20612;-84
2022/09/20 01:54:46;;;;;;;8.52;1.27;;;;;;;16.04;56.19;100447.25;4993211;28;20129;-84
2022/09/20 01:57:11;;;;;;;5.85;1.10;;;;;;;16.30;55.80;100485.16;4993485;28;20046;-84
2022/09/20 01:59:48;;;;;;;4.40;0.90;;;;;;;16.22;56.00;100482.41;4993317;28;20489;-85
2022/09/20 02:02:32;;;;;;;3.75;0.98;;;;;;;16.24;56.12;100489.38;4994421;28;20114;-85
2022/09/20 02:05:16;;;;;;;1.52;0.90;;;;;;;16.29;55.96;100461.75;4993531;28;20042;-83
2022/09/20 02:08:00;;;;;;;1.13;0.90;;;;;;;16.29;55.67;100467.19;4994124;28;20031;-83
2022/09/20 02:11:01;;;;;;;3.30;1.50;;;;;;;16.29;55.68;100473.47;4993024;28;20608;-82
2022/09/20 02:13:39;;;;;;;4.75;1.05;;;;;;;16.26;55.75;100462.94;4953892;29;20162;-84
2022/09/20 02:16:23;;;;;;;10.45;1.48;;;;;;;16.33;55.71;100480.25;4955069;29;20045;-85
2022/09/20 02:19:06;;;;;;;5.55;1.30;;;;;;;16.32;55.94;100489.41;4954406;29;20043;-84
2022/09/20 02:21:44;;;;;;;;;;;;;;;16.36;55.92;100494.53;4956170;29;20078;-84
2022/09/20 02:24:15;;;;;;;6.70;1.30;;;;;;;16.41;55.64;100494.88;5011001;28;20388;-83
2022/09/20 02:27:05;;;;;;;5.78;1.17;;;;;;;16.44;55.46;100500.81;5015573;28;20046;-84
2022/09/20 02:29:57;;;;;;;1.27;1.02;;;;;;;16.46;55.44;100500.63;5016870;28;20030;-84
2022/09/20 02:32:26;;;;;;;;;;;;;;;16.47;54.81;100497.78;5018070;28;20080;-84
2022/09/20 02:35:17;;;;;;;1.20;0.85;;;;;;;16.39;54.94;100483.34;5019450;28;20006;-84
2022/09/20 02:37:57;;;;;;;2.17;0.95;;;;;;;16.47;54.78;100502.34;5017227;28;20045;-85
2022/09/20 02:40:38;;;;;;;1.52;0.90;;;;;;;16.48;55.01;100506.78;5017498;28;20067;-84
2022/09/20 02:43:16;;;;;;;11.85;1.10;;;;;;;16.49;54.94;100511.16;5017203;28;20084;-83
2022/09/20 02:46:00;;;;;;;1.17;1.00;;;;;;;16.36;54.43;100494.53;5014137;28;20131;-83
2022/09/20 02:48:41;;;;;;;1.13;0.90;;;;;;;16.46;54.72;100512.34;5012517;28;20042;-83
2022/09/20 02:51:15;;;;;;;1.73;1.42;;;;;;;16.46;54.57;100503.34;5040696;28;20041;-81
2022/09/20 02:54:18;;;;;;;3.58;1.20;;;;;;;16.43;54.62;100503.69;5052391;28;20093;-86
2022/09/20 02:57:08;;;;;;;3.83;1.38;;;;;;;16.24;54.57;100486.66;5054702;28;20098;-83
2022/09/20 02:59:42;;;;;;;1.45;1.00;;;;;;;16.27;54.80;100508.03;5055819;28;20071;-84
2022/09/20 03:02:35;;;;;;;1.63;1.52;;;;;;;16.20;55.01;100504.31;5064107;28;20032;-84
2022/09/20 03:05:09;;;;;;;1.20;1.05;;;;;;;16.17;55.24;100512.78;5069653;28;20047;-83
2022/09/20 03:07:58;;;;;;;2.03;1.25;;;;;;;16.04;55.21;100501.50;5074148;28;20040;-83
2022/09/20 03:11:00;;;;;;;9.07;1.40;;;;;;;16.01;55.82;100509.97;5062247;28;20032;-84
2022/09/20 03:13:37;;;;;;;2.33;0.95;;;;;;;16.04;55.86;100511.50;5062270;28;20052;-85
2022/09/20 03:16:30;;;;;;;6.28;1.25;;;;;;;16.00;55.55;100507.41;5078042;28;20025;-80
2022/09/20 03:19:19;;;;;;;3.17;1.20;;;;;;;16.04;55.72;100516.94;5072779;28;20025;-81
2022/09/20 03:21:53;;;;;;;2.85;1.25;;;;;;;15.86;55.81;100498.03;5072469;28;20024;-80
2022/09/20 03:24:39;;;;;;;1.63;1.20;;;;;;;15.67;55.83;100471.16;5072979;28;20033;-79
2022/09/20 03:27:43;;;;;;;8.52;1.75;;;;;;;15.98;56.23;100528.44;5072420;28;20025;-82
2022/09/20 03:30:36;;;;;;;6.25;1.52;;;;;;;15.91;56.51;100533.66;5072904;28;20103;-82
2022/09/20 03:33:36;;;;;;;2.38;1.40;;;;;;;15.95;56.56;100529.63;5071844;28;20460;-80
2022/09/20 03:36:39;;;;;;;5.05;1.65;;;;;;;15.85;56.60;100534.31;5072819;28;20079;-79
2022/09/20 03:39:15;;;;;;;4.93;1.75;;;;;;;15.85;56.55;100534.31;5072922;28;20029;-79
2022/09/20 03:42:09;;;;;;;1.77;1.30;;;;;;;15.93;56.87;100533.50;5073303;28;20108;-78
2022/09/20 03:44:44;;;;;;;2.35;1.77;;;;;;;15.66;56.82;100501.97;5074232;28;20122;-90
2022/09/20 03:47:30;;;;;;;1.98;1.65;;;;;;;15.80;57.14;100525.81;5057636;28;20035;-91
2022/09/20 03:50:34;;;;;;;4.32;1.98;;;;;;;15.80;57.04;100514.97;5057829;28;20043;-86
2022/09/20 03:53:24;;;;;;;15.65;2.13;;;;;;;15.85;56.92;100534.31;5073450;28;20532;-85
2022/09/20 03:56:13;;;;;;;3.30;1.70;;;;;;;15.89;57.17;100546.53;5071788;28;20093;-81
2022/09/20 03:59:13;;;;;;;6.82;3.25;;;;;;;15.85;57.24;100547.00;5071681;28;20028;-81
2022/09/20 04:02:00;;;;;;;6.10;1.70;;;;;;;15.83;57.22;100552.59;5072331;28;20027;-89
2022/09/20 04:04:35;;;;;;;7.80;2.38;;;;;;;15.77;57.32;100548.69;5087611;28;20113;-84
2022/09/20 04:07:39;;;;;;;15.32;2.50;;;;;;;15.78;57.31;100554.94;5055002;28;20028;-89
2022/09/20 04:10:13;;;;;;;2.08;1.55;;;;;;;15.68;57.25;100555.06;5010237;28;20076;-86
2022/09/20 04:13:11;;;;;;;4.07;1.50;;;;;;;15.53;57.90;100550.38;5011338;28;20117;-90
2022/09/20 04:15:48;;;;;;;5.15;2.03;;;;;;;15.40;57.62;100534.50;4989507;28;20580;-90
2022/09/20 04:18:38;;;;;;;9.40;2.38;;;;;;;15.55;57.98;100570.03;4996730;28;20038;-95
2022/09/20 04:21:22;;;;;;;24.95;2.92;;;;;;;15.43;57.68;100539.59;4999216;28;20265;-89
2022/09/20 04:23:56;;;;;;;5.03;1.92;;;;;;;15.64;57.50;100552.81;5014439;28;20034;-90
2022/09/20 04:29:17;;;;;;;6.82;3.42;;;;;;;15.46;57.83;100554.69;5152546;22;20341;-91
2022/09/20 04:31:55;;;;;;;12.45;2.22;;;;;;;15.48;58.31;100563.53;5034533;28;20014;-88
2022/09/20 04:37:48;;;;;;;18.60;3.15;;;;;;;15.61;58.55;100572.97;5002766;28;20037;-78
2022/09/20 04:40:31;;;;;;;9.10;2.40;;;;;;;15.67;58.21;100561.47;4989516;28;20150;-81
2022/09/20 04:43:34;;;;;;;13.35;2.50;;;;;;;15.61;58.66;100570.25;4988672;28;20028;-80
2022/09/20 04:46:23;;;;;;;5.68;2.63;;;;;;;15.50;58.47;100564.25;4987830;28;20025;-79
2022/09/20 04:49:09;;;;;;;12.30;3.30;;;;;;;15.43;58.82;100560.41;4988222;28;20038;-78
2022/09/20 04:51:34;;;;;;;18.00;3.05;;;;;;;15.27;58.87;100543.03;4987309;28;20041;-78
2022/09/20 04:54:43;;;;;;;9.75;2.28;;;;;;;15.47;58.47;100567.25;4988455;28;20038;-78
2022/09/20 04:57:21;;;;;;;10.02;2.45;;;;;;;15.37;58.99;100571.88;4929984;29;20043;-78
2022/09/20 05:00:11;;;;;;;15.00;2.53;;;;;;;15.47;58.34;100572.66;4930621;29;20046;-85
2022/09/20 05:03:42;;;;;;;5.95;2.15;;;;;;;15.42;58.41;100575.81;4878600;29;20069;-83
2022/09/20 05:06:22;;;;;;;5.65;2.22;;;;;;;15.45;58.39;100571.94;4920873;29;20138;-90
2022/09/20 05:09:15;;;;;;;7.28;2.47;;;;;;;15.45;58.10;100574.66;4931846;29;20028;-92
2022/09/20 05:12:17;;;;;;;5.97;1.92;;;;;;;15.39;58.18;100576.13;4931563;29;20063;-90
2022/09/20 05:14:55;;;;;;;29.63;3.00;;;;;;;15.35;58.49;100563.91;4927967;29;20077;-87
2022/09/20 05:17:32;;;;;;;14.60;2.70;;;;;;;15.27;58.69;100564.69;4929923;29;20081;-91
2022/09/20 05:20:23;;;;;;;8.48;2.80;;;;;;;15.33;58.55;100560.50;4925412;29;20080;-76
2022/09/20 05:23:25;;;;;;;13.90;3.13;;;;;;;15.32;58.70;100566.09;4910667;29;20533;-76
2022/09/20 05:26:11;;;;;;;11.63;2.95;;;;;;;15.32;58.30;100534.41;4910807;29;20444;-79
2022/09/20 05:28:48;;;;;;;12.52;8.25;;;;;;;15.50;58.37;100554.25;4909690;29;20123;-77
2022/09/20 05:31:29;;;;;;;8.38;3.53;;;;;;;15.46;58.13;100554.69;4910292;29;20119;-77
2022/09/20 05:34:19;;;;;;;7.50;2.53;;;;;;;15.20;58.18;100517.56;4908338;29;20271;-78
2022/09/20 05:36:55;;;;;;;10.38;2.58;;;;;;;15.13;57.57;100484.00;4929651;29;20602;-81
2022/09/20 05:39:41;;;;;;;4.13;2.00;;;;;;;15.52;57.48;100559.50;4950409;28;20085;-80
2022/09/20 05:42:27;;;;;;;7.22;2.55;;;;;;;15.45;58.09;100561.09;4991042;28;20029;-78
2022/09/20 05:45:30;;;;;;;8.20;2.42;;;;;;;15.56;57.31;100566.31;4972650;28;20058;-77
2022/09/20 05:48:00;;;;;;;;;;;;;;;15.58;57.30;100580.56;4991768;28;21294;-80
2022/09/20 05:50:29;;;;;;;3.90;1.88;;;;;;;15.63;57.01;100578.22;4993024;28;20000;-78
2022/09/20 05:53:03;;;;;;;4.32;1.90;;;;;;;15.65;56.33;100587.06;4991100;28;20019;-79
2022/09/20 05:55:50;;;;;;;8.52;1.80;;;;;;;15.73;56.27;100587.09;4990993;28;20030;-77
2022/09/20 05:58:39;;;;;;;5.72;1.83;;;;;;;15.72;55.93;100577.25;4995174;28;20034;-84
2022/09/20 06:01:25;;;;;;;4.15;1.92;;;;;;;15.83;55.64;100582.44;5025805;28;20057;-84
2022/09/20 06:04:22;;;;;;;7.28;2.03;;;;;;;15.84;55.74;100586.84;5022484;28;20093;-83
2022/09/20 06:07:12;;;;;;;16.73;2.85;;;;;;;15.79;55.71;100556.63;5024131;28;20084;-82
2022/09/20 06:10:12;;;;;;;15.18;3.10;;;;;;;16.16;55.50;100606.03;4983600;28;20059;-79
2022/09/20 06:13:01;;;;;;;12.48;2.20;;;;;;;16.10;54.65;100565.97;4934403;29;20073;-86
2022/09/20 06:15:32;;;;;;;12.05;3.47;;;;;;;16.38;54.43;100596.47;4918998;29;20041;-82
2022/09/20 06:18:16;;;;;;;9.45;3.05;;;;;;;16.41;53.77;100607.00;4912737;29;20046;-80
2022/09/20 06:20:50;;;;;;;21.52;3.80;;;;;;;16.46;54.13;100611.94;4913750;29;20039;-83
2022/09/20 06:23:17;;;;;;;7.07;2.00;;;;;;;16.46;53.67;100598.38;4916369;29;20162;-81
2022/09/20 06:25:56;;;;;;;8.38;2.75;;;;;;;16.40;53.09;100599.88;4915313;29;20071;-81
2022/09/20 06:28:40;;;;;;;18.88;4.63;;;;;;;16.41;53.89;100589.88;4915672;29;20066;-83
2022/09/20 06:31:07;;;;;;;123.03;10.38;;;;;;;16.45;53.64;100580.41;4914435;29;20123;-81
2022/09/20 06:33:42;;;;;;;7.00;1.70;;;;;;;16.86;52.97;100629.28;4913768;29;20582;-79
2022/09/20 06:42:09;;;;;;;10.68;3.65;;;;;;;16.81;51.85;100590.06;4972968;28;20062;-78
2022/09/20 06:44:38;;;;;;;1.98;1.58;;;;;;;16.97;51.48;100614.53;4973555;28;20042;-79
2022/09/20 06:47:07;;;;;;;16.63;2.38;;;;;;;16.81;51.56;100588.19;4973868;28;20058;-80
2022/09/20 06:49:34;;;;;;;7.22;2.03;;;;;;;17.03;51.66;100611.13;5016045;28;20030;-85
2022/09/20 06:52:01;;;;;;;4.35;1.88;;;;;;;16.95;51.33;100607.56;5013248;28;20421;-82
2022/09/20 06:54:27;;;;;;;8.43;4.50;;;;;;;16.92;51.40;100600.59;5014904;28;20025;-80
2022/09/20 06:56:53;;;;;;;4.13;1.90;;;;;;;16.86;50.98;100595.81;4982159;28;20072;-84
2022/09/20 06:59:19;;;;;;;14.60;2.75;;;;;;;16.52;51.44;100554.28;5020541;28;20022;-83
2022/09/20 07:01:44;;;;;;;6.65;2.10;;;;;;;16.90;51.48;100605.34;5015973;28;20030;-87
2022/09/20 07:04:23;;;;;;;8.85;2.80;;;;;;;16.75;51.43;100583.44;5022096;28;20037;-86
2022/09/20 07:06:49;;;;;;;7.32;2.35;;;;;;;16.94;51.48;100614.84;5025668;28;20033;-86
2022/09/20 07:09:16;;;;;;;12.65;2.40;;;;;;;16.98;51.46;100599.94;5021246;28;20026;-85
2022/09/20 07:11:41;;;;;;;12.73;2.47;;;;;;;17.15;50.71;100600.81;5013043;28;20033;-87
2022/09/20 07:14:07;;;;;;;6.40;2.30;;;;;;;17.10;50.16;100585.00;5013537;28;20547;-87
2022/09/20 07:16:34;;;;;;;7.90;2.55;;;;;;;17.08;50.34;100591.63;5014496;28;20500;-87
2022/09/20 07:18:59;;;;;;;12.40;2.30;;;;;;;16.75;50.46;100518.22;5014352;28;20026;-87
2022/09/20 07:21:24;;;;;;;6.22;2.58;;;;;;;17.39;50.48;100620.72;5020349;28;20088;-89
2022/09/20 07:23:52;;;;;;;9.10;2.80;;;;;;;17.19;50.40;100570.41;5022380;28;20026;-89
2022/09/20 07:26:22;;;;;;;11.00;2.42;;;;;;;17.56;49.78;100620.75;5025062;28;20077;-89
2022/09/20 07:29:08;;;;;;;4.13;1.67;;;;;;;17.69;48.42;100615.66;5007404;28;20073;-87
2022/09/20 07:31:33;;;;;;;4.20;1.80;;;;;;;17.60;46.84;100578.59;5014024;28;20042;-80
2022/09/20 07:33:59;;;;;;;11.35;1.92;;;;;;;17.72;47.01;100588.13;5007174;28;20585;-82
2022/09/20 07:36:24;;;;;;;13.02;2.65;;;;;;;17.75;46.00;100583.19;5006382;28;20477;-83
2022/09/20 07:38:51;;;;;;;4.13;1.98;;;;;;;18.11;45.91;100621.72;4994537;28;20149;-91
2022/09/20 07:41:18;;;;;;;8.05;2.10;;;;;;;18.20;45.10;100628.00;4993473;28;20030;-91
2022/09/20 07:43:45;;;;;;;9.55;1.80;;;;;;;17.99;45.25;100568.66;4993919;28;20062;-91
2022/09/20 07:46:12;;;;;;;5.35;1.80;;;;;;;18.10;44.46;100571.03;4994593;28;20030;-91
2022/09/20 07:48:38;;;;;;;4.38;1.88;;;;;;;18.09;44.12;100558.44;4995257;28;20085;-90
2022/09/20 07:51:10;;;;;;;4.07;2.33;;;;;;;18.44;44.13;100631.50;4992329;28;20034;-87
2022/09/20 07:53:36;;;;;;;10.98;3.78;;;;;;;18.38;44.18;100613.13;4992635;28;20037;-90
2022/09/20 07:56:12;;;;;;;5.85;1.95;;;;;;;18.54;44.09;100628.59;4997153;28;20103;-92
2022/09/20 07:58:38;;;;;;;6.95;1.75;;;;;;;18.54;44.35;100619.56;4992274;28;20057;-87
2022/09/20 08:01:10;;;;;;;84.47;9.60;;;;;;;18.41;44.81;100587.41;5013600;28;20655;-83
2022/09/20 08:03:35;;;;;;;8.87;1.97;;;;;;;18.68;44.80;100614.25;5017898;28;20049;-84
2022/09/20 08:06:04;;;;;;;8.55;2.33;;;;;;;18.71;44.67;100605.72;5020416;28;20451;-83
2022/09/20 08:08:35;;;;;;;4.53;2.08;;;;;;;18.91;44.54;100625.19;5016142;28;20029;-85
2022/09/20 08:11:06;;;;;;;2.42;1.38;;;;;;;19.06;43.73;100628.00;5011829;28;20452;-86
2022/09/20 08:13:36;;;;;;;9.98;2.20;;;;;;;19.10;43.23;100634.81;5010276;28;20027;-83
2022/09/20 08:16:04;;;;;;;7.20;1.80;;;;;;;18.91;43.44;100570.69;5011188;28;20045;-88
2022/09/20 08:18:30;;;;;;;7.03;1.65;;;;;;;19.27;42.58;100615.44;5013627;28;20030;-87
2022/09/20 08:20:55;;;;;;;4.05;2.03;;;;;;;19.26;42.53;100607.44;5011069;28;20037;-79
2022/09/20 08:23:21;;;;;;;45.92;24.85;;;;;;;19.49;41.54;100625.53;5011884;28;20026;-86
2022/09/20 08:25:47;;;;;;;6.05;2.35;;;;;;;19.47;40.59;100607.66;5011085;28;20033;-81
2022/09/20 08:28:13;;;;;;;4.32;1.25;;;;;;;19.66;40.94;100609.03;5011549;28;20045;-84
2022/09/20 08:30:38;;;;;;;4.55;1.48;;;;;;;19.84;40.50;100623.19;5010390;28;20022;-81
2022/09/20 08:33:05;;;;;;;9.63;1.60;;;;;;;19.92;39.71;100593.94;5010391;28;20029;-84
2022/09/20 08:35:34;;;;;;;11.07;1.35;;;;;;;20.06;39.73;100609.47;5011884;28;20033;-81
2022/09/20 08:38:00;;;;;;;6.03;1.30;;;;;;;19.96;38.89;100578.03;5013748;28;20022;-83
2022/09/20 08:40:28;;;;;;;2.65;0.90;;;;;;;20.07;37.50;100596.69;5011735;28;20113;-84
2022/09/20 08:42:55;;;;;;;5.38;1.50;;;;;;;19.81;37.10;100555.34;5012035;28;20083;-85
2022/09/20 08:45:24;;;;;;;5.68;1.85;;;;;;;19.95;38.15;100609.94;5011827;28;20033;-84
2022/09/20 08:47:52;;;;;;;3.30;1.52;;;;;;;19.84;38.04;100601.34;5014971;28;20030;-83
2022/09/20 08:50:18;;;;;;;3.15;1.45;;;;;;;19.62;38.92;100578.53;5011842;28;20109;-83
2022/09/20 08:52:47;;;;;;;5.75;1.48;;;;;;;19.76;39.11;100590.50;5012365;28;20025;-84
2022/09/20 08:55:22;;;;;;;5.35;1.60;;;;;;;19.69;39.02;100562.28;5012392;28;20033;-81
2022/09/20 08:57:56;;;;;;;16.05;1.95;;;;;;;19.76;39.12;100558.59;5013440;28;20041;-83
2022/09/20 09:00:25;;;;;;;3.22;1.60;;;;;;;19.80;39.21;100553.63;5025151;28;20020;-83
2022/09/20 09:02:56;;;;;;;3.28;2.10;;;;;;;20.08;39.16;100582.00;5024849;28;20033;-78
2022/09/20 09:05:32;;;;;;;30.15;18.77;;;;;;;20.07;39.14;100581.16;5022838;28;20026;-80
2022/09/20 09:08:02;;;;;;;1.83;1.42;;;;;;;20.17;39.03;100586.34;5015973;28;20034;-83
2022/09/20 09:10:35;;;;;;;9.30;2.38;;;;;;;20.04;39.02;100543.28;5010524;28;20029;-83
2022/09/20 09:13:02;;;;;;;2.05;1.13;;;;;;;20.03;37.17;100527.09;5010298;28;20033;-83
2022/09/20 09:15:35;;;;;;;10.88;1.88;;;;;;;20.33;37.43;100586.19;5010359;28;20101;-84
2022/09/20 09:18:01;;;;;;;9.70;1.77;;;;;;;20.10;37.58;100569.00;5009406;28;20605;-86
2022/09/20 09:20:27;;;;;;;4.32;1.67;;;;;;;20.33;37.27;100561.59;5010103;28;20026;-83
2022/09/20 09:23:07;;;;;;;7.78;1.25;;;;;;;20.32;36.89;100538.03;5010912;28;20030;-84
2022/09/20 09:25:39;;;;;;;2.03;1.08;;;;;;;20.43;36.43;100543.00;5008294;28;20136;-79
2022/09/20 09:28:07;;;;;;;6.30;2.20;;;;;;;20.55;35.81;100567.97;5009427;28;20618;-78
2022/09/20 09:30:40;;;;;;;3.42;1.08;;;;;;;20.56;35.22;100565.06;5009177;28;20038;-76
2022/09/20 09:33:21;;;;;;;12.45;0.82;;;;;;;20.64;34.68;100562.19;5009552;28;20413;-79
2022/09/20 09:35:56;;;;;;;1.98;0.80;;;;;;;20.49;34.12;100538.66;5009529;28;20121;-79
2022/09/20 09:38:25;;;;;;;3.38;1.20;;;;;;;20.73;34.18;100581.25;5010328;28;20050;-81
2022/09/20 09:41:00;;;;;;;2.50;0.80;;;;;;;20.83;33.43;100581.75;5010066;28;20033;-81
2022/09/20 09:43:29;;;;;;;6.10;1.15;;;;;;;20.92;32.76;100588.81;5009152;28;20073;-78
2022/09/20 09:46:14;;;;;;;10.48;3.03;;;;;;;20.98;32.50;100591.63;5009478;28;20108;-79
2022/09/20 09:48:39;;;;;;;2.05;1.45;;;;;;;20.86;32.57;100538.50;5009034;28;20572;-79
2022/09/20 09:51:14;;;;;;;3.53;1.63;;;;;;;21.05;32.27;100559.75;5009513;28;20109;-78
2022/09/20 09:53:41;;;;;;;22.17;1.95;;;;;;;21.10;32.48;100559.19;5007035;28;20125;-79
2022/09/20 09:56:31;;;;;;;3.85;1.10;;;;;;;21.29;32.66;100583.16;5014548;28;20116;-81
2022/09/20 09:59:22;;;;;;;23.23;1.67;;;;;;;21.37;32.69;100583.06;5013128;28;20026;-81
2022/09/20 10:02:00;;;;;;;6.53;1.20;;;;;;;21.28;32.19;100554.13;5013648;28;20038;-79
2022/09/20 10:04:50;;;;;;;7.38;1.52;;;;;;;21.53;32.00;100573.69;5014078;28;20034;-79
2022/09/20 10:07:28;;;;;;;5.13;1.00;;;;;;;21.44;31.74;100553.84;5016267;28;20060;-83
2022/09/20 10:10:19;;;;;;;6.72;2.05;;;;;;;21.71;32.25;100574.91;5018470;28;20038;-83
2022/09/20 10:13:25;;;;;;;8.88;1.20;;;;;;;22.00;31.69;100568.44;5014218;28;20018;-81
2022/09/20 10:16:00;;;;;;;1.27;0.90;;;;;;;22.07;31.03;100560.25;4952265;29;20601;-80
2022/09/20 10:18:53;;;;;;;1.30;1.15;;;;;;;22.14;30.99;100567.47;4952510;29;20150;-77
2022/09/20 10:21:40;;;;;;;1.30;0.80;;;;;;;22.26;30.22;100565.03;4952516;29;20155;-76
2022/09/20 10:24:16;;;;;;;2.63;1.08;;;;;;;22.14;29.87;100544.69;4955788;29;20062;-83
2022/09/20 10:26:42;;;;;;;1.75;1.20;;;;;;;22.20;29.91;100554.84;4955797;29;20078;-82
2022/09/20 10:29:45;;;;;;;2.28;0.90;;;;;;;22.11;30.00;100556.06;4964113;29;20514;-84
2022/09/20 10:32:32;;;;;;;3.42;0.80;;;;;;;22.27;29.67;100561.22;4967455;29;20039;-81
2022/09/20 10:35:10;;;;;;;7.65;1.08;;;;;;;22.40;29.64;100550.34;4961662;29;20676;-85
2022/09/20 10:38:18;;;;;;;4.75;0.98;;;;;;;22.48;29.71;100552.91;4954634;29;20062;-84
2022/09/20 10:44:26;;;;;;;5.82;3.15;;;;;;;22.62;29.69;100548.34;4939144;29;20055;-85
2022/09/20 10:47:13;;;;;;;1.30;0.77;;;;;;;22.63;29.84;100556.34;4936207;29;20032;-84
2022/09/20 10:49:47;;;;;;;1.98;0.90;;;;;;;22.60;29.79;100550.41;4917367;29;20115;-80
2022/09/20 10:52:39;;;;;;;6.93;1.08;;;;;;;22.70;30.19;100553.66;4947384;28;20118;-81
2022/09/20 10:55:44;;;;;;;4.43;1.20;;;;;;;22.81;30.60;100542.13;4972002;28;20477;-80
2022/09/20 10:58:31;;;;;;;5.75;1.20;;;;;;;22.75;30.11;100516.34;4968675;28;20130;-81
2022/09/20 11:01:08;;;;;;;7.75;1.63;;;;;;;22.96;28.93;100550.16;4953979;28;20035;-80
2022/09/20 11:03:42;;;;;;;3.00;0.90;;;;;;;22.97;29.00;100549.09;4970397;28;20057;-81
2022/09/20 11:06:39;;;;;;;4.45;1.13;;;;;;;22.91;28.93;100547.19;4969783;28;20030;-80
2022/09/20 11:09:09;;;;;;;9.65;1.63;;;;;;;22.92;29.41;100546.13;4970195;28;20043;-80
2022/09/20 11:11:45;;;;;;;1.58;0.95;;;;;;;23.04;29.33;100547.22;4970477;28;20026;-80
2022/09/20 11:14:10;;;;;;;2.83;1.50;;;;;;;22.88;29.42;100518.28;4969831;28;20070;-80
2022/09/20 11:16:49;;;;;;;7.32;0.77;;;;;;;23.10;29.42;100535.41;4970542;28;20115;-81
2022/09/20 11:19:34;;;;;;;2.03;1.17;;;;;;;23.20;29.14;100549.59;4970031;28;20053;-80
2022/09/20 11:22:14;;;;;;;23.38;18.23;;;;;;;23.01;29.29;100498.25;5009872;28;20044;-80
2022/09/20 11:24:51;;;;;;;4.25;1.30;;;;;;;23.17;29.36;100508.84;5012661;28;20485;-79
2022/09/20 11:27:20;;;;;;;5.00;1.17;;;;;;;23.26;29.44;100497.47;5013146;28;20073;-80
2022/09/20 11:30:00;;;;;;;4.55;1.05;;;;;;;23.39;29.39;100529.59;5013434;28;20136;-80
2022/09/20 11:32:33;;;;;;;2.45;1.20;;;;;;;23.20;29.29;100508.41;5013342;28;20026;-80
2022/09/20 11:35:10;;;;;;;2.83;1.10;;;;;;;23.49;29.45;100519.00;5012301;28;20032;-81
2022/09/20 11:37:45;;;;;;;5.45;1.30;;;;;;;23.52;29.60;100518.59;5012329;28;20037;-81
2022/09/20 11:40:31;;;;;;;2.05;0.75;;;;;;;23.57;29.17;100529.81;5011477;28;20165;-81
2022/09/20 11:43:05;;;;;;;5.45;1.30;;;;;;;23.54;29.52;100537.63;5010072;28;20460;-81
2022/09/20 11:45:32;;;;;;;2.47;1.20;;;;;;;23.57;28.88;100527.06;5011536;28;20026;-81
2022/09/20 11:48:23;;;;;;;2.35;1.38;;;;;;;23.43;28.80;100527.25;5011678;28;20041;-82
2022/09/20 11:50:55;;;;;;;14.32;1.67;;;;;;;23.47;29.16;100545.84;5011690;28;20088;-79
2022/09/20 11:53:24;;;;;;;7.95;1.33;;;;;;;23.60;29.21;100531.28;5012455;28;20037;-79
2022/09/20 11:56:18;;;;;;;10.50;1.30;;;;;;;23.47;29.09;100514.78;5020119;28;20034;-78
2022/09/20 11:58:49;;;;;;;1.65;1.00;;;;;;;23.61;29.29;100517.31;5025031;28;20022;-79
2022/09/20 12:01:24;;;;;;;11.77;2.67;;;;;;;23.45;29.14;100509.53;5026465;28;20026;-80
2022/09/20 12:03:53;;;;;;;4.78;0.90;;;;;;;23.29;29.53;100485.22;5018174;28;20017;-80
2022/09/20 12:06:34;;;;;;;3.20;0.82;;;;;;;23.43;29.58;100517.13;5015498;28;20471;-80
2022/09/20 12:09:05;;;;;;;2.17;1.00;;;;;;;23.31;29.62;100488.56;5007505;28;20116;-81
2022/09/20 12:11:37;;;;;;;1.58;0.80;;;;;;;23.43;29.39;100486.91;4992057;28;20464;-85
2022/09/20 12:14:17;;;;;;;5.95;1.17;;;;;;;23.32;29.29;100443.63;4991815;28;20409;-86
2022/09/20 12:16:45;;;;;;;2.47;1.15;;;;;;;23.94;29.09;100522.81;4991615;28;20058;-85
2022/09/20 12:19:13;;;;;;;11.98;1.30;;;;;;;23.92;29.05;100497.41;4989931;28;20061;-85
2022/09/20 12:21:57;;;;;;;4.28;1.13;;;;;;;24.06;28.82;100520.22;4992406;28;20049;-85
2022/09/20 12:24:32;;;;;;;10.85;1.42;;;;;;;23.94;28.79;100503.56;4991297;28;20030;-85
2022/09/20 12:27:17;;;;;;;1.20;1.08;;;;;;;24.09;29.04;100514.31;4989313;28;20445;-84
2022/09/20 12:29:46;;;;;;;9.20;1.73;;;;;;;24.14;28.24;100518.13;4991064;28;20569;-84
2022/09/20 12:32:33;;;;;;;2.75;1.02;;;;;;;24.04;28.21;100523.19;4992039;28;20034;-85